Hauptseite
METAR-TAF:

METAR-TAF

Flughäfen :

Flughafen Bamako

Bamako, Mali

Breite: 12-32N, Länge: 007-57W, Höhe: 380 m

Beobachtung

Neuester Wetterbericht von vor 33 Minuten, um 18:30 UTC
Wind 1 kt aus unterschiedlichen Richtungen
Temperatur 29°C
Luftfeuchtigkeit 66%
Luftdruck 1013 hPa
Sichtweite: 6000 m

METAR: GABS 231830Z VRB01KT 6000 NSC 29/22 Q1013 NOSIG

Zeit: 19:03 (19:03 UTC)

Prognose

Neuester Wetterbericht von vor 1 Stunde und 33 Minuten, um 17:30 UTC
Gültige Prognose vom 23 um 18 UTC bis 24 um 24 UTC
Wind 6 kt aus unterschiedlichen Richtungen
Sichtweite: 6000 m
Leicht bewölkt in der Höhe von 3000 ft
Wahrscheinlichkeit 40% :
Zeitweise
vom 24 um 06 UTC bis 24 um 12 UTC
Sichtweite: 4500 m
trockener Dunst

TAF: GABS 231730Z 2318/2424 VRB06KT 6000 FEW030 PROB40 TEMPO 2406/2412 4500 HZ

Wetterbeobachtungen und Prognosen von mehr als 4000 Flughäfen (METAR und TAF Bericht).

Die verfügbaren Stationen werden durch gelbe und rote Markierungen auf der Karte dargestellt.

Führen Sie die Maus auf sie, um den Namen der Station zu sehen.

Darauf klicken, um die Beobachtung von Wetterbeobachtungen und Prognosen zu sehen.

Um die Karte zu ändern : klicken Sie auf den grünen Tasten mit einem schwarzen Kreuz Zum Vergrößern, auf den grünen Button mit einem Gedankenstrich zu verkleinern, oder auf die grünen Pfeile für benachbarte Karten.


METAR-TAF: